createdAt,value
2023-04-23T00:01:14.642Z,3.42
2023-04-23T00:03:43.165Z,3.58
2023-04-23T00:06:11.542Z,3.48
2023-04-23T00:08:42.332Z,3.52
2023-04-23T00:11:10.623Z,3.50
2023-04-23T00:13:38.362Z,3.41
2023-04-23T00:16:06.596Z,3.54
2023-04-23T00:18:33.839Z,3.46
2023-04-23T00:21:01.036Z,3.43
2023-04-23T00:23:29.495Z,3.57
2023-04-23T00:25:58.058Z,3.55
2023-04-23T00:28:25.140Z,3.34
2023-04-23T00:30:52.186Z,3.31
2023-04-23T00:33:19.798Z,3.39
2023-04-23T00:35:46.958Z,3.58
2023-04-23T00:38:14.235Z,3.79
2023-04-23T00:40:41.636Z,3.33
2023-04-23T00:43:10.717Z,3.39
2023-04-23T00:45:38.505Z,3.32
2023-04-23T00:48:07.179Z,3.35
2023-04-23T00:50:34.379Z,3.75
2023-04-23T00:53:01.912Z,3.48
2023-04-23T00:55:29.755Z,3.30
2023-04-23T00:57:57.043Z,3.60
2023-04-23T01:00:25.752Z,3.28
2023-04-23T01:02:53.870Z,2.46
2023-04-23T01:05:23.938Z,2.56
2023-04-23T01:07:51.817Z,2.44
2023-04-23T01:10:19.250Z,2.56
2023-04-23T01:12:48.995Z,2.41
2023-04-23T01:15:16.688Z,2.59
2023-04-23T01:17:45.395Z,2.66
2023-04-23T01:20:12.843Z,2.87
2023-04-23T01:22:41.466Z,2.68
2023-04-23T01:25:09.826Z,2.76
2023-04-23T01:27:37.208Z,2.90
2023-04-23T01:30:05.877Z,2.84
2023-04-23T01:32:34.097Z,2.78
2023-04-23T01:35:02.524Z,2.81
2023-04-23T01:37:31.568Z,2.77
2023-04-23T01:40:00.556Z,2.82
2023-04-23T01:42:27.978Z,2.87
2023-04-23T01:44:55.493Z,2.89
2023-04-23T01:47:23.956Z,2.76
2023-04-23T01:49:51.282Z,3.02
2023-04-23T01:52:18.473Z,2.92
2023-04-23T01:54:45.639Z,2.60
2023-04-23T01:57:14.480Z,3.01
2023-04-23T01:59:43.204Z,3.09
2023-04-23T02:02:10.358Z,2.75
2023-04-23T02:04:41.217Z,2.88
2023-04-23T02:07:08.690Z,2.72
2023-04-23T02:09:35.951Z,2.90
2023-04-23T02:12:03.632Z,2.76
2023-04-23T02:14:32.175Z,2.86
2023-04-23T02:16:59.261Z,2.64
2023-04-23T02:19:26.407Z,2.82
2023-04-23T02:21:53.615Z,2.48
2023-04-23T02:24:20.714Z,2.49
2023-04-23T02:26:47.802Z,2.52
2023-04-23T02:29:14.931Z,2.50
2023-04-23T02:31:43.539Z,2.66
2023-04-23T02:34:10.739Z,2.50
2023-04-23T02:36:37.861Z,2.69
2023-04-23T02:39:05.055Z,2.77
2023-04-23T02:41:32.239Z,2.73
2023-04-23T02:43:59.621Z,2.53
2023-04-23T02:46:26.750Z,2.70
2023-04-23T02:48:55.296Z,2.61
2023-04-23T02:51:22.501Z,2.51
2023-04-23T02:53:49.782Z,2.48
2023-04-23T02:56:17.234Z,2.50
2023-04-23T02:58:44.464Z,2.52
2023-04-23T03:01:11.710Z,2.62
2023-04-23T03:03:39.493Z,2.61
2023-04-23T03:06:08.724Z,2.35
2023-04-23T03:08:35.861Z,2.63
2023-04-23T03:11:03.059Z,2.72
2023-04-23T03:13:30.256Z,2.52
2023-04-23T03:15:57.387Z,3.07
2023-04-23T03:18:24.541Z,2.51
2023-04-23T03:20:51.760Z,2.49
2023-04-23T03:23:20.317Z,2.47
2023-04-23T03:25:47.608Z,2.57
2023-04-23T03:28:14.645Z,2.27
2023-04-23T03:30:42.069Z,2.67
2023-04-23T03:33:09.182Z,2.46
2023-04-23T03:35:36.321Z,2.57
2023-04-23T03:38:03.479Z,2.50
2023-04-23T03:40:32.101Z,2.53
2023-04-23T03:42:59.728Z,2.41
2023-04-23T03:45:27.031Z,2.66
2023-04-23T03:47:54.265Z,2.69
2023-04-23T03:50:21.510Z,2.83
2023-04-23T03:52:48.650Z,2.79
2023-04-23T03:55:15.953Z,2.51
2023-04-23T03:57:44.509Z,2.62
2023-04-23T04:00:12.993Z,2.59
2023-04-23T04:02:40.873Z,2.64
2023-04-23T04:05:09.123Z,2.75
2023-04-23T04:07:36.452Z,2.51
2023-04-23T04:10:03.996Z,2.99
2023-04-23T04:12:31.142Z,2.61
2023-04-23T04:14:59.809Z,2.94
2023-04-23T04:17:27.150Z,2.92
2023-04-23T04:19:54.461Z,2.73
2023-04-23T04:22:21.579Z,2.96
2023-04-23T04:24:48.736Z,2.99
2023-04-23T04:27:15.797Z,2.89
2023-04-23T04:29:42.985Z,3.22
2023-04-23T04:32:12.217Z,2.84
2023-04-23T04:34:39.855Z,2.98
2023-04-23T04:37:07.337Z,3.26
2023-04-23T04:39:34.511Z,3.04
2023-04-23T04:42:01.717Z,3.23
2023-04-23T04:44:29.080Z,2.85
2023-04-23T04:46:56.454Z,2.74
2023-04-23T04:49:25.021Z,2.61
2023-04-23T04:51:52.293Z,2.91
2023-04-23T04:54:19.335Z,2.48
2023-04-23T04:56:46.435Z,2.67
2023-04-23T04:59:13.639Z,2.62
2023-04-23T05:01:41.194Z,2.76
2023-04-23T05:04:08.409Z,2.68
2023-04-23T05:06:37.177Z,2.86
2023-04-23T05:09:04.328Z,2.79
2023-04-23T05:11:32.237Z,2.94
2023-04-23T05:13:59.475Z,2.90
2023-04-23T05:16:26.606Z,2.69
2023-04-23T05:18:53.819Z,2.97
2023-04-23T05:21:21.095Z,2.76
2023-04-23T05:23:49.595Z,2.45
2023-04-23T05:26:16.696Z,2.43
2023-04-23T05:28:43.802Z,2.85
2023-04-23T05:31:11.009Z,2.63
2023-04-23T05:33:49.312Z,3.02
2023-04-23T05:36:17.894Z,2.92
2023-04-23T05:38:45.261Z,2.85
2023-04-23T05:41:14.052Z,2.94
2023-04-23T05:43:41.829Z,3.03
2023-04-23T05:46:09.054Z,3.20
2023-04-23T05:48:36.068Z,3.39
2023-04-23T05:51:03.273Z,3.10
2023-04-23T05:53:30.497Z,3.17
2023-04-23T05:55:57.569Z,3.04
2023-04-23T05:58:26.244Z,3.24
2023-04-23T06:00:53.818Z,3.06
2023-04-23T06:03:21.169Z,3.14
2023-04-23T06:05:48.468Z,3.17
2023-04-23T06:08:16.094Z,3.16
2023-04-23T06:10:43.916Z,2.96
2023-04-23T06:13:11.259Z,3.10
2023-04-23T06:15:40.035Z,3.03
2023-04-23T06:18:07.219Z,2.90
2023-04-23T06:20:34.810Z,3.02
2023-04-23T06:23:01.972Z,2.88
2023-04-23T06:25:29.092Z,3.04
2023-04-23T06:27:56.213Z,2.81
2023-04-23T06:30:23.413Z,2.81
2023-04-23T06:32:52.331Z,2.83
2023-04-23T06:35:19.590Z,2.74
2023-04-23T06:37:46.835Z,2.97
2023-04-23T06:40:15.025Z,2.75
2023-04-23T06:42:42.130Z,2.98
2023-04-23T06:45:10.577Z,2.91
2023-04-23T06:47:38.007Z,2.70
2023-04-23T06:50:08.780Z,2.86
2023-04-23T06:52:36.137Z,2.75
2023-04-23T06:55:03.805Z,3.00
2023-04-23T06:57:30.868Z,2.63
2023-04-23T06:59:57.996Z,2.85
2023-04-23T07:02:25.136Z,2.94
2023-04-23T07:04:52.304Z,2.82
2023-04-23T07:07:20.860Z,3.03
2023-04-23T07:09:47.892Z,2.62
2023-04-23T07:12:15.126Z,2.68
2023-04-23T07:14:42.547Z,2.82
2023-04-23T07:17:09.857Z,3.05
2023-04-23T07:19:37.030Z,3.14
2023-04-23T07:22:04.311Z,3.16
2023-04-23T07:24:32.984Z,3.24
2023-04-23T07:27:00.183Z,3.03
2023-04-23T07:29:27.351Z,3.18
2023-04-23T07:31:54.478Z,3.04
2023-04-23T07:34:21.810Z,3.17
2023-04-23T07:36:48.987Z,3.17
2023-04-23T07:39:16.230Z,3.17
2023-04-23T07:41:45.214Z,3.37
2023-04-23T07:44:12.408Z,3.48
2023-04-23T07:46:39.508Z,3.05
2023-04-23T07:49:06.719Z,3.15
2023-04-23T07:51:34.034Z,3.09
2023-04-23T07:54:01.121Z,3.24
2023-04-23T07:56:28.413Z,2.74
2023-04-23T07:58:56.997Z,3.23
2023-04-23T08:01:24.304Z,2.73
2023-04-23T08:03:51.709Z,2.89
2023-04-23T08:06:18.965Z,2.37
2023-04-23T08:08:46.103Z,2.28
2023-04-23T08:11:13.418Z,2.41
2023-04-23T08:13:40.558Z,2.66
2023-04-23T08:16:09.203Z,2.42
2023-04-23T08:18:36.474Z,2.37
2023-04-23T08:21:04.029Z,2.28
2023-04-23T08:23:31.165Z,2.40
2023-04-23T08:25:58.356Z,2.31
2023-04-23T08:28:25.487Z,2.07
2023-04-23T08:30:52.599Z,2.12
2023-04-23T08:33:21.206Z,2.35
2023-04-23T08:35:48.397Z,2.40
2023-04-23T08:38:15.481Z,2.39
2023-04-23T08:40:45.295Z,2.39
2023-04-23T08:43:19.156Z,2.28
2023-04-23T08:45:49.056Z,2.15
2023-04-23T08:48:16.237Z,2.41
2023-04-23T08:50:46.655Z,2.05
2023-04-23T08:53:19.518Z,2.18
2023-04-23T08:55:50.604Z,2.24
2023-04-23T08:58:18.436Z,2.14
2023-04-23T09:00:46.197Z,2.18
2023-04-23T09:03:14.295Z,2.19
2023-04-23T09:05:42.000Z,2.29
2023-04-23T09:08:10.856Z,2.28
2023-04-23T09:10:40.979Z,2.28
2023-04-23T09:13:08.682Z,2.21
2023-04-23T09:15:36.917Z,2.22
2023-04-23T09:18:04.911Z,2.14
2023-04-23T09:20:32.117Z,2.44
2023-04-23T09:22:59.236Z,2.19
2023-04-23T09:25:27.867Z,2.12
2023-04-23T09:27:58.375Z,2.08
2023-04-23T09:30:25.514Z,2.40
2023-04-23T09:32:52.787Z,2.28
2023-04-23T09:35:21.050Z,2.19
2023-04-23T09:37:50.777Z,2.45
2023-04-23T09:40:20.105Z,2.54
2023-04-23T09:42:50.659Z,2.50
2023-04-23T09:45:18.183Z,2.39
2023-04-23T09:47:50.497Z,2.69
2023-04-23T09:50:17.858Z,2.72
2023-04-23T09:52:45.138Z,2.83
2023-04-23T09:55:12.317Z,3.07
2023-04-23T09:57:41.898Z,2.57
2023-04-23T10:00:17.515Z,2.84
2023-04-23T10:02:49.002Z,2.59
2023-04-23T10:05:24.283Z,2.62
2023-04-23T10:07:53.369Z,2.50
2023-04-23T10:10:20.732Z,2.48
2023-04-23T10:12:54.722Z,2.48
2023-04-23T10:15:26.720Z,2.57
2023-04-23T10:17:54.779Z,2.38
2023-04-23T10:20:23.709Z,2.64
2023-04-23T10:22:54.930Z,2.63
2023-04-23T10:25:25.523Z,2.60
2023-04-23T10:27:56.921Z,2.69
2023-04-23T10:30:26.032Z,2.78
2023-04-23T10:32:55.471Z,2.68
2023-04-23T10:35:22.889Z,2.81
2023-04-23T10:37:51.702Z,2.72
2023-04-23T10:40:24.878Z,2.47
2023-04-23T10:42:52.821Z,2.41
2023-04-23T10:47:54.394Z,2.24
2023-04-23T10:50:26.849Z,2.43
2023-04-23T10:52:55.255Z,2.60
2023-04-23T10:55:24.163Z,2.44
2023-04-23T10:58:01.605Z,2.42
2023-04-23T11:00:44.280Z,2.61
2023-04-23T11:03:39.756Z,2.27
2023-04-23T11:06:14.382Z,2.45
2023-04-23T11:08:52.023Z,2.74
2023-04-23T11:11:19.257Z,2.66
2023-04-23T11:13:52.653Z,2.60
2023-04-23T11:16:23.163Z,2.53
2023-04-23T11:19:02.316Z,2.64
2023-04-23T11:21:57.100Z,2.56
2023-04-23T11:24:24.568Z,2.80
2023-04-23T11:26:52.987Z,2.43
2023-04-23T11:29:22.658Z,2.62
2023-04-23T11:32:01.440Z,2.57
2023-04-23T11:34:33.961Z,2.60
2023-04-23T11:37:02.969Z,2.85
2023-04-23T11:39:30.136Z,2.49
2023-04-23T11:41:57.502Z,2.54
2023-04-23T11:44:24.678Z,2.72
2023-04-23T11:46:51.819Z,2.53
2023-04-23T11:49:20.718Z,2.51
2023-04-23T11:51:49.401Z,2.17
2023-04-23T11:54:16.613Z,2.33
2023-04-23T11:56:43.736Z,2.47
2023-04-23T11:59:10.876Z,2.45
2023-04-23T12:01:46.046Z,2.24
2023-04-23T12:04:15.141Z,2.29
2023-04-23T12:06:44.892Z,2.39
2023-04-23T12:09:15.109Z,2.09
2023-04-23T12:11:43.428Z,2.28
2023-04-23T12:14:12.524Z,2.30
2023-04-23T12:16:41.450Z,2.36
2023-04-23T12:19:09.634Z,2.34
2023-04-23T12:21:48.880Z,2.53
2023-04-23T12:24:17.616Z,2.49
2023-04-23T12:26:45.003Z,2.22
2023-04-23T12:29:14.088Z,2.00
2023-04-23T12:31:43.805Z,2.08
2023-04-23T12:34:13.058Z,2.10
2023-04-23T12:36:44.201Z,2.23
2023-04-23T12:39:27.485Z,2.20
2023-04-23T12:41:56.433Z,2.26
2023-04-23T12:44:24.013Z,2.28
2023-04-23T12:46:57.400Z,2.21
2023-04-23T12:49:25.640Z,2.36
2023-04-23T12:51:53.076Z,2.15
2023-04-23T12:54:22.026Z,2.16
2023-04-23T12:56:49.240Z,2.14
2023-04-23T12:59:16.440Z,2.12
2023-04-23T13:01:43.792Z,2.15
2023-04-23T13:04:10.956Z,2.12
2023-04-23T13:06:38.156Z,2.21
2023-04-23T13:09:05.500Z,2.29
2023-04-23T13:11:34.035Z,2.26
2023-04-23T13:14:01.136Z,2.52
2023-04-23T13:16:29.694Z,2.24
2023-04-23T13:18:56.976Z,2.29
2023-04-23T13:21:25.017Z,2.38
2023-04-23T13:23:53.481Z,2.33
2023-04-23T13:26:20.797Z,2.19
2023-04-23T13:28:49.593Z,2.20
2023-04-23T13:31:17.980Z,2.11
2023-04-23T13:33:45.179Z,2.40
2023-04-23T13:36:12.599Z,2.21
2023-04-23T13:38:40.022Z,2.13
2023-04-23T13:41:07.280Z,2.22
2023-04-23T13:43:34.417Z,2.39
2023-04-23T13:46:03.362Z,2.36
2023-04-23T13:48:30.937Z,2.06
2023-04-23T13:50:58.693Z,2.28
2023-04-23T13:53:27.921Z,2.31
2023-04-23T13:55:55.698Z,2.18
2023-04-23T13:58:23.361Z,2.18
2023-04-23T14:00:50.529Z,2.24
2023-04-23T14:03:19.278Z,2.24
2023-04-23T14:05:46.584Z,2.19
2023-04-23T14:08:13.917Z,2.40
2023-04-23T14:10:42.433Z,2.32
2023-04-23T14:13:10.897Z,2.22
2023-04-23T14:15:38.212Z,2.19
2023-04-23T14:18:05.985Z,2.08
2023-04-23T14:20:34.618Z,2.05
2023-04-23T14:23:24.175Z,1.86
2023-04-23T14:25:53.696Z,1.98
2023-04-23T14:28:30.096Z,1.85
2023-04-23T14:30:57.997Z,1.65
2023-04-23T14:33:25.115Z,1.75
2023-04-23T14:35:53.751Z,1.55
2023-04-23T14:38:21.221Z,1.74
2023-04-23T14:40:48.365Z,1.55
2023-04-23T14:43:16.153Z,1.60
2023-04-23T14:45:44.041Z,1.57
2023-04-23T14:48:11.544Z,1.78
2023-04-23T14:50:39.820Z,1.71
2023-04-23T14:53:08.634Z,1.63
2023-04-23T14:55:36.130Z,1.77
2023-04-23T14:58:03.319Z,2.08
2023-04-23T15:00:30.533Z,1.84
2023-04-23T15:02:57.909Z,1.87
2023-04-23T15:05:25.465Z,2.23
2023-04-23T15:07:52.591Z,1.77
2023-04-23T15:10:23.220Z,2.05
2023-04-23T15:13:02.475Z,2.60
2023-04-23T15:15:44.731Z,1.91
2023-04-23T15:18:13.577Z,2.13
2023-04-23T15:20:40.895Z,2.46
2023-04-23T15:23:16.637Z,1.98
2023-04-23T15:25:43.939Z,2.17
2023-04-23T15:28:11.112Z,2.00
2023-04-23T15:30:38.338Z,1.71
2023-04-23T15:33:05.476Z,2.08
2023-04-23T15:35:32.603Z,2.60
2023-04-23T15:37:59.838Z,2.84
2023-04-23T15:40:29.138Z,1.94
2023-04-23T15:42:56.302Z,1.77
2023-04-23T15:45:23.628Z,1.51
2023-04-23T15:47:51.883Z,1.39
2023-04-23T15:50:19.000Z,1.24
2023-04-23T15:52:46.367Z,1.10
2023-04-23T15:55:13.778Z,0.73
2023-04-23T15:57:42.284Z,0.79
2023-04-23T16:00:10.564Z,0.88
2023-04-23T16:02:37.899Z,0.94
2023-04-23T16:05:05.388Z,1.03
2023-04-23T16:07:32.625Z,0.95
2023-04-23T16:09:59.910Z,1.21
2023-04-23T16:12:27.252Z,1.17
2023-04-23T16:14:55.933Z,1.24
2023-04-23T16:17:23.389Z,1.22
2023-04-23T16:19:50.611Z,1.19
2023-04-23T16:22:17.740Z,1.28
2023-04-23T16:24:44.915Z,1.28
2023-04-23T16:27:12.635Z,1.29
2023-04-23T16:29:40.268Z,2.19
2023-04-23T16:32:08.953Z,1.45
2023-04-23T16:34:36.087Z,1.66
2023-04-23T16:37:03.438Z,1.59
2023-04-23T16:39:30.909Z,1.69
2023-04-23T16:41:57.957Z,1.78
2023-04-23T16:44:25.383Z,1.37
2023-04-23T16:46:53.096Z,1.60
2023-04-23T16:49:21.803Z,1.52
2023-04-23T16:51:48.975Z,1.53
2023-04-23T16:54:16.164Z,1.49
2023-04-23T16:56:43.381Z,1.73
2023-04-23T16:59:10.589Z,1.60
2023-04-23T17:01:37.882Z,1.84
2023-04-23T17:04:05.213Z,1.75
2023-04-23T17:06:34.356Z,1.66
2023-04-23T17:09:02.918Z,1.48
2023-04-23T17:11:31.336Z,1.43
2023-04-23T17:13:59.483Z,1.52
2023-04-23T17:16:27.076Z,1.92
2023-04-23T17:18:54.290Z,1.88
2023-04-23T17:21:21.802Z,1.88
2023-04-23T17:23:50.857Z,2.17
2023-04-23T17:26:18.195Z,2.20
2023-04-23T17:28:45.532Z,2.00
2023-04-23T17:31:13.694Z,1.65
2023-04-23T17:33:40.924Z,1.90
2023-04-23T17:36:08.114Z,1.73
2023-04-23T17:38:35.225Z,1.83
2023-04-23T17:41:03.739Z,1.57
2023-04-23T17:43:30.918Z,1.75
2023-04-23T17:45:58.094Z,1.79
2023-04-23T17:48:25.439Z,1.86
2023-04-23T17:50:52.639Z,2.34
2023-04-23T17:53:19.794Z,2.52
2023-04-23T17:55:46.949Z,2.34
2023-04-23T17:58:15.577Z,2.39
2023-04-23T18:00:43.492Z,2.48
2023-04-23T18:03:11.228Z,2.59
2023-04-23T18:05:38.336Z,1.85
2023-04-23T18:08:05.658Z,1.57
2023-04-23T18:10:32.997Z,1.78
2023-04-23T18:13:01.691Z,1.85
2023-04-23T18:15:30.419Z,2.15
2023-04-23T18:17:57.763Z,3.54
2023-04-23T18:20:25.541Z,2.94
2023-04-23T18:22:53.258Z,1.90
2023-04-23T18:25:20.607Z,1.95
2023-04-23T18:27:47.899Z,1.77
2023-04-23T18:30:15.203Z,1.52
2023-04-23T18:32:49.718Z,1.68
2023-04-23T18:35:17.901Z,1.75
2023-04-23T18:37:52.934Z,1.86
2023-04-23T18:40:20.276Z,1.63
2023-04-23T18:42:47.423Z,1.55
2023-04-23T18:45:14.600Z,1.40
2023-04-23T18:47:51.719Z,1.43
2023-04-23T18:50:37.877Z,1.45
2023-04-23T18:53:05.274Z,1.42
2023-04-23T18:55:32.378Z,1.60
2023-04-23T18:57:59.908Z,1.63
2023-04-23T19:00:27.636Z,1.50
2023-04-23T19:02:56.332Z,1.49
2023-04-23T19:05:23.692Z,1.51
2023-04-23T19:07:51.016Z,1.66
2023-04-23T19:10:18.202Z,1.84
2023-04-23T19:12:45.431Z,2.75
2023-04-23T19:15:12.802Z,2.43
2023-04-23T19:17:40.251Z,2.00
2023-04-23T19:20:09.936Z,1.79
2023-04-23T19:22:37.433Z,1.59
2023-04-23T19:25:05.436Z,1.73
2023-04-23T19:27:32.635Z,1.81
2023-04-23T19:29:59.998Z,2.23
2023-04-23T19:32:28.610Z,2.29
2023-04-23T19:34:56.037Z,2.34
2023-04-23T19:37:24.974Z,1.85
2023-04-23T19:39:52.217Z,1.58
2023-04-23T19:42:19.706Z,1.39
2023-04-23T19:44:46.793Z,1.71
2023-04-23T19:47:14.018Z,1.75
2023-04-23T19:49:41.473Z,1.59
2023-04-23T19:52:11.914Z,1.70
2023-04-23T19:54:40.460Z,1.55
2023-04-23T19:57:07.593Z,1.31
2023-04-23T19:59:34.713Z,1.70
2023-04-23T20:02:01.796Z,1.62
2023-04-23T20:04:29.053Z,1.41
2023-04-23T20:06:58.002Z,1.50
2023-04-23T20:09:25.463Z,1.43
2023-04-23T20:11:54.554Z,1.34
2023-04-23T20:14:22.484Z,1.65
2023-04-23T20:16:49.679Z,1.48
2023-04-23T20:19:17.795Z,1.56
2023-04-23T20:21:45.237Z,1.71
2023-04-23T20:24:13.991Z,1.46
2023-04-23T20:26:42.341Z,1.62
2023-04-23T20:29:11.334Z,1.53
2023-04-23T20:31:38.742Z,1.57
2023-04-23T20:34:05.943Z,1.37
2023-04-23T20:36:33.378Z,1.34
2023-04-23T20:39:02.314Z,1.42
2023-04-23T20:41:31.469Z,1.82
2023-04-23T20:43:59.396Z,1.57
2023-04-23T20:46:28.269Z,1.80
2023-04-23T20:48:55.466Z,1.78
2023-04-23T20:51:23.707Z,1.63
2023-04-23T20:53:51.973Z,1.74
2023-04-23T20:56:19.139Z,1.56
2023-04-23T20:58:46.318Z,1.33
2023-04-23T21:01:13.841Z,1.59
2023-04-23T21:03:42.701Z,1.62
2023-04-23T21:06:11.263Z,1.79
2023-04-23T21:08:38.618Z,1.81
2023-04-23T21:11:05.894Z,1.39
2023-04-23T21:13:33.079Z,1.53
2023-04-23T21:16:00.315Z,1.67
2023-04-23T21:18:27.578Z,1.56
2023-04-23T21:20:56.167Z,1.51
2023-04-23T21:23:23.277Z,1.30
2023-04-23T21:25:50.394Z,1.16
2023-04-23T21:28:17.810Z,1.28
2023-04-23T21:30:49.574Z,1.21
2023-04-23T21:33:18.211Z,1.17
2023-04-23T21:35:45.931Z,1.35
2023-04-23T21:38:14.493Z,1.04
2023-04-23T21:40:41.807Z,1.15
2023-04-23T21:43:09.251Z,1.11
2023-04-23T21:45:36.513Z,1.21
2023-04-23T21:48:04.585Z,1.01
2023-04-23T21:50:34.667Z,0.87
2023-04-23T21:53:01.838Z,1.18
2023-04-23T21:55:31.829Z,1.05
2023-04-23T21:58:09.748Z,1.25
2023-04-23T22:00:43.479Z,1.30
2023-04-23T22:03:10.881Z,1.19
2023-04-23T22:05:38.693Z,1.30
2023-04-23T22:08:06.097Z,1.16
2023-04-23T22:10:34.834Z,1.06
2023-04-23T22:13:01.976Z,1.08
2023-04-23T22:15:29.521Z,1.08
2023-04-23T22:17:56.840Z,1.26
2023-04-23T22:20:23.996Z,1.14
2023-04-23T22:22:51.054Z,0.90
2023-04-23T22:25:18.273Z,1.44
2023-04-23T22:27:46.892Z,1.18
2023-04-23T22:30:14.317Z,1.20
2023-04-23T22:32:41.713Z,1.03
2023-04-23T22:35:09.808Z,0.92
2023-04-23T22:37:37.252Z,0.78
2023-04-23T22:40:06.192Z,0.73
2023-04-23T22:42:33.572Z,0.60
2023-04-23T22:45:02.083Z,0.54
2023-04-23T22:47:29.204Z,1.05
2023-04-23T22:49:56.437Z,0.67
2023-04-23T22:52:23.670Z,0.84
2023-04-23T22:54:50.732Z,0.68
2023-04-23T22:57:17.992Z,0.75
2023-04-23T22:59:45.326Z,0.77
2023-04-23T23:02:13.935Z,0.66
2023-04-23T23:04:41.119Z,0.55
2023-04-23T23:07:09.089Z,0.36
2023-04-23T23:09:36.580Z,0.49
2023-04-23T23:12:05.133Z,0.48
2023-04-23T23:14:32.511Z,0.48
2023-04-23T23:16:59.937Z,0.59
2023-04-23T23:19:28.409Z,0.52
2023-04-23T23:21:55.859Z,0.60
2023-04-23T23:24:23.628Z,0.44
2023-04-23T23:26:51.421Z,0.45
2023-04-23T23:29:18.617Z,0.52
2023-04-23T23:31:46.047Z,0.67
2023-04-23T23:34:13.379Z,0.79
2023-04-23T23:36:42.028Z,0.81
2023-04-23T23:39:09.119Z,0.73
2023-04-23T23:41:36.196Z,0.61
2023-04-23T23:44:03.390Z,0.49
2023-04-23T23:46:30.713Z,0.60
2023-04-23T23:48:57.852Z,0.52
2023-04-23T23:51:25.032Z,0.57
2023-04-23T23:53:53.573Z,0.39
2023-04-23T23:56:20.686Z,0.38
2023-04-23T23:58:47.813Z,0.41
